sensor_id;sensor_type;location;lat;lon;timestamp;temperature;humidity
909;DHT22;441;51.192;6.788;2023-12-14T00:00:51;23.30;53.70
909;DHT22;441;51.192;6.788;2023-12-14T00:03:18;23.30;53.70
909;DHT22;441;51.192;6.788;2023-12-14T00:05:45;23.30;53.70
909;DHT22;441;51.192;6.788;2023-12-14T00:08:12;23.30;53.70
909;DHT22;441;51.192;6.788;2023-12-14T00:10:39;23.20;53.70
909;DHT22;441;51.192;6.788;2023-12-14T00:13:05;23.20;53.60
909;DHT22;441;51.192;6.788;2023-12-14T00:15:34;23.20;53.60
909;DHT22;441;51.192;6.788;2023-12-14T00:18:01;23.20;53.60
909;DHT22;441;51.192;6.788;2023-12-14T00:20:28;23.20;53.70
909;DHT22;441;51.192;6.788;2023-12-14T00:22:55;23.20;53.70
909;DHT22;441;51.192;6.788;2023-12-14T00:25:22;23.20;53.70
909;DHT22;441;51.192;6.788;2023-12-14T00:27:49;23.10;53.70
909;DHT22;441;51.192;6.788;2023-12-14T00:30:16;23.10;53.70
909;DHT22;441;51.192;6.788;2023-12-14T00:32:44;23.10;53.70
909;DHT22;441;51.192;6.788;2023-12-14T00:35:11;23.10;53.80
909;DHT22;441;51.192;6.788;2023-12-14T00:37:38;23.10;53.80
909;DHT22;441;51.192;6.788;2023-12-14T00:40:06;23.10;53.80
909;DHT22;441;51.192;6.788;2023-12-14T00:42:33;23.10;53.80
909;DHT22;441;51.192;6.788;2023-12-14T00:45:00;23.10;53.80
909;DHT22;441;51.192;6.788;2023-12-14T00:47:27;23.00;53.70
909;DHT22;441;51.192;6.788;2023-12-14T00:49:55;23.00;53.80
909;DHT22;441;51.192;6.788;2023-12-14T00:52:22;23.00;53.80
909;DHT22;441;51.192;6.788;2023-12-14T00:54:49;23.00;53.80
909;DHT22;441;51.192;6.788;2023-12-14T00:57:15;23.00;53.90
909;DHT22;441;51.192;6.788;2023-12-14T00:59:42;23.00;53.90
909;DHT22;441;51.192;6.788;2023-12-14T01:02:09;23.00;53.90
909;DHT22;441;51.192;6.788;2023-12-14T01:04:36;23.00;54.00
909;DHT22;441;51.192;6.788;2023-12-14T01:07:04;23.00;54.00
909;DHT22;441;51.192;6.788;2023-12-14T01:09:31;22.90;53.90
909;DHT22;441;51.192;6.788;2023-12-14T01:11:58;22.90;53.90
909;DHT22;441;51.192;6.788;2023-12-14T01:14:25;22.90;53.90
909;DHT22;441;51.192;6.788;2023-12-14T01:16:52;22.90;53.90
909;DHT22;441;51.192;6.788;2023-12-14T01:19:19;22.90;53.90
909;DHT22;441;51.192;6.788;2023-12-14T01:21:46;22.90;54.00
909;DHT22;441;51.192;6.788;2023-12-14T01:24:14;22.90;54.00
909;DHT22;441;51.192;6.788;2023-12-14T01:26:41;22.90;54.00
909;DHT22;441;51.192;6.788;2023-12-14T01:29:08;22.90;54.10
909;DHT22;441;51.192;6.788;2023-12-14T01:31:35;22.90;54.10
909;DHT22;441;51.192;6.788;2023-12-14T01:34:02;22.90;54.10
909;DHT22;441;51.192;6.788;2023-12-14T01:36:29;22.90;54.10
909;DHT22;441;51.192;6.788;2023-12-14T01:38:55;22.90;54.10
909;DHT22;441;51.192;6.788;2023-12-14T01:41:24;22.80;54.00
909;DHT22;441;51.192;6.788;2023-12-14T01:43:51;22.80;54.10
909;DHT22;441;51.192;6.788;2023-12-14T01:46:17;22.90;54.10
909;DHT22;441;51.192;6.788;2023-12-14T01:48:44;22.80;54.10
909;DHT22;441;51.192;6.788;2023-12-14T01:51:11;22.80;54.10
909;DHT22;441;51.192;6.788;2023-12-14T01:53:38;22.80;54.00
909;DHT22;441;51.192;6.788;2023-12-14T01:56:07;22.80;54.10
909;DHT22;441;51.192;6.788;2023-12-14T01:58:35;22.80;54.10
909;DHT22;441;51.192;6.788;2023-12-14T02:01:05;22.80;54.10
909;DHT22;441;51.192;6.788;2023-12-14T02:03:34;22.80;54.10
909;DHT22;441;51.192;6.788;2023-12-14T02:06:01;22.80;54.10
909;DHT22;441;51.192;6.788;2023-12-14T02:08:28;22.80;54.20
909;DHT22;441;51.192;6.788;2023-12-14T02:10:55;22.80;54.20
909;DHT22;441;51.192;6.788;2023-12-14T02:13:22;22.80;54.20
909;DHT22;441;51.192;6.788;2023-12-14T02:15:50;22.80;54.20
909;DHT22;441;51.192;6.788;2023-12-14T02:18:19;22.80;54.20
909;DHT22;441;51.192;6.788;2023-12-14T02:20:46;22.80;54.20
909;DHT22;441;51.192;6.788;2023-12-14T02:23:14;22.70;54.10
909;DHT22;441;51.192;6.788;2023-12-14T02:25:41;22.70;54.10
909;DHT22;441;51.192;6.788;2023-12-14T02:28:07;22.70;54.20
909;DHT22;441;51.192;6.788;2023-12-14T02:30:34;22.70;54.20
909;DHT22;441;51.192;6.788;2023-12-14T02:33:01;22.80;54.30
909;DHT22;441;51.192;6.788;2023-12-14T02:35:28;22.70;54.10
909;DHT22;441;51.192;6.788;2023-12-14T02:37:55;22.80;54.20
909;DHT22;441;51.192;6.788;2023-12-14T02:40:23;22.70;54.20
909;DHT22;441;51.192;6.788;2023-12-14T02:42:50;22.70;54.20
909;DHT22;441;51.192;6.788;2023-12-14T02:45:17;22.70;54.20
909;DHT22;441;51.192;6.788;2023-12-14T02:47:44;22.70;54.20
909;DHT22;441;51.192;6.788;2023-12-14T02:50:13;22.70;54.20
909;DHT22;441;51.192;6.788;2023-12-14T02:52:40;22.70;54.20
909;DHT22;441;51.192;6.788;2023-12-14T02:55:07;22.70;54.20
909;DHT22;441;51.192;6.788;2023-12-14T02:57:35;22.70;54.20
909;DHT22;441;51.192;6.788;2023-12-14T03:00:03;22.70;54.20
909;DHT22;441;51.192;6.788;2023-12-14T03:02:30;22.70;54.20
909;DHT22;441;51.192;6.788;2023-12-14T03:04:57;22.70;54.20
909;DHT22;441;51.192;6.788;2023-12-14T03:07:23;22.70;54.20
909;DHT22;441;51.192;6.788;2023-12-14T03:09:50;22.70;54.20
909;DHT22;441;51.192;6.788;2023-12-14T03:12:17;22.70;54.20
909;DHT22;441;51.192;6.788;2023-12-14T03:14:45;22.70;54.20
909;DHT22;441;51.192;6.788;2023-12-14T03:17:12;22.70;54.20
909;DHT22;441;51.192;6.788;2023-12-14T03:19:39;22.70;54.10
909;DHT22;441;51.192;6.788;2023-12-14T03:22:07;22.70;54.10
909;DHT22;441;51.192;6.788;2023-12-14T03:24:34;22.60;54.00
909;DHT22;441;51.192;6.788;2023-12-14T03:27:01;22.60;54.00
909;DHT22;441;51.192;6.788;2023-12-14T03:29:28;22.60;54.00
909;DHT22;441;51.192;6.788;2023-12-14T03:31:57;22.60;54.00
909;DHT22;441;51.192;6.788;2023-12-14T03:34:24;22.60;54.00
909;DHT22;441;51.192;6.788;2023-12-14T03:36:51;22.60;54.00
909;DHT22;441;51.192;6.788;2023-12-14T03:39:18;22.60;54.00
909;DHT22;441;51.192;6.788;2023-12-14T03:41:45;22.60;54.10
909;DHT22;441;51.192;6.788;2023-12-14T03:44:12;22.60;54.10
909;DHT22;441;51.192;6.788;2023-12-14T03:46:39;22.60;54.10
909;DHT22;441;51.192;6.788;2023-12-14T03:49:07;22.60;54.00
909;DHT22;441;51.192;6.788;2023-12-14T03:51:34;22.60;54.00
909;DHT22;441;51.192;6.788;2023-12-14T03:54:01;22.60;54.00
909;DHT22;441;51.192;6.788;2023-12-14T03:56:28;22.60;54.00
909;DHT22;441;51.192;6.788;2023-12-14T03:58:55;22.60;54.00
909;DHT22;441;51.192;6.788;2023-12-14T04:01:22;22.60;54.00
909;DHT22;441;51.192;6.788;2023-12-14T04:03:49;22.60;54.00
909;DHT22;441;51.192;6.788;2023-12-14T04:06:17;22.60;54.00
909;DHT22;441;51.192;6.788;2023-12-14T04:08:45;22.60;54.00
909;DHT22;441;51.192;6.788;2023-12-14T04:11:12;22.60;53.90
909;DHT22;441;51.192;6.788;2023-12-14T04:13:38;22.60;53.90
909;DHT22;441;51.192;6.788;2023-12-14T04:16:06;22.60;54.00
909;DHT22;441;51.192;6.788;2023-12-14T04:18:33;22.60;54.00
909;DHT22;441;51.192;6.788;2023-12-14T04:21:00;22.60;54.00
909;DHT22;441;51.192;6.788;2023-12-14T04:23:28;22.60;54.00
909;DHT22;441;51.192;6.788;2023-12-14T04:25:55;22.50;54.00
909;DHT22;441;51.192;6.788;2023-12-14T04:28:22;22.50;54.00
909;DHT22;441;51.192;6.788;2023-12-14T04:30:49;22.50;54.00
909;DHT22;441;51.192;6.788;2023-12-14T04:33:16;22.50;54.00
909;DHT22;441;51.192;6.788;2023-12-14T04:35:42;22.50;54.00
909;DHT22;441;51.192;6.788;2023-12-14T04:38:10;22.50;54.00
909;DHT22;441;51.192;6.788;2023-12-14T04:40:38;22.50;54.00
909;DHT22;441;51.192;6.788;2023-12-14T04:43:05;22.50;54.00
909;DHT22;441;51.192;6.788;2023-12-14T04:45:32;22.50;54.10
909;DHT22;441;51.192;6.788;2023-12-14T04:47:58;22.50;54.10
909;DHT22;441;51.192;6.788;2023-12-14T04:50:25;22.50;54.10
909;DHT22;441;51.192;6.788;2023-12-14T04:52:52;22.50;54.10
909;DHT22;441;51.192;6.788;2023-12-14T04:55:19;22.50;54.00
909;DHT22;441;51.192;6.788;2023-12-14T04:57:47;22.50;54.00
909;DHT22;441;51.192;6.788;2023-12-14T05:00:15;22.50;54.00
909;DHT22;441;51.192;6.788;2023-12-14T05:02:46;22.50;53.90
909;DHT22;441;51.192;6.788;2023-12-14T05:05:14;22.50;54.00
909;DHT22;441;51.192;6.788;2023-12-14T05:07:41;22.50;54.00
909;DHT22;441;51.192;6.788;2023-12-14T05:10:08;22.50;54.10
909;DHT22;441;51.192;6.788;2023-12-14T05:12:36;22.50;54.80
909;DHT22;441;51.192;6.788;2023-12-14T05:15:05;22.50;54.30
909;DHT22;441;51.192;6.788;2023-12-14T05:17:32;22.50;54.50
909;DHT22;441;51.192;6.788;2023-12-14T05:20:00;22.50;55.20
909;DHT22;441;51.192;6.788;2023-12-14T05:22:27;22.50;55.70
909;DHT22;441;51.192;6.788;2023-12-14T05:24:54;22.60;55.80
909;DHT22;441;51.192;6.788;2023-12-14T05:27:21;22.60;56.00
909;DHT22;441;51.192;6.788;2023-12-14T05:29:48;22.60;56.10
909;DHT22;441;51.192;6.788;2023-12-14T05:32:16;22.60;56.50
909;DHT22;441;51.192;6.788;2023-12-14T05:34:43;22.60;56.70
909;DHT22;441;51.192;6.788;2023-12-14T05:37:10;22.60;57.00
909;DHT22;441;51.192;6.788;2023-12-14T05:39:37;22.60;56.90
909;DHT22;441;51.192;6.788;2023-12-14T05:42:04;22.60;57.00
909;DHT22;441;51.192;6.788;2023-12-14T05:44:31;22.60;56.90
909;DHT22;441;51.192;6.788;2023-12-14T05:46:58;22.60;56.80
909;DHT22;441;51.192;6.788;2023-12-14T05:49:27;22.60;56.90
909;DHT22;441;51.192;6.788;2023-12-14T05:51:53;22.60;57.20
909;DHT22;441;51.192;6.788;2023-12-14T05:54:20;22.60;57.20
909;DHT22;441;51.192;6.788;2023-12-14T05:56:47;22.60;57.40
909;DHT22;441;51.192;6.788;2023-12-14T05:59:14;22.60;57.00
909;DHT22;441;51.192;6.788;2023-12-14T06:01:41;22.60;56.90
909;DHT22;441;51.192;6.788;2023-12-14T06:04:08;22.60;57.40
909;DHT22;441;51.192;6.788;2023-12-14T06:06:38;22.60;57.90
909;DHT22;441;51.192;6.788;2023-12-14T06:09:05;22.60;58.20
909;DHT22;441;51.192;6.788;2023-12-14T06:11:32;22.60;58.40
909;DHT22;441;51.192;6.788;2023-12-14T06:13:59;22.60;59.70
909;DHT22;441;51.192;6.788;2023-12-14T06:16:26;22.70;61.60
909;DHT22;441;51.192;6.788;2023-12-14T06:18:53;22.70;63.30
909;DHT22;441;51.192;6.788;2023-12-14T06:21:20;22.70;61.40
909;DHT22;441;51.192;6.788;2023-12-14T06:23:48;22.60;58.60
909;DHT22;441;51.192;6.788;2023-12-14T06:26:15;22.60;60.30
909;DHT22;441;51.192;6.788;2023-12-14T06:28:42;22.70;61.90
909;DHT22;441;51.192;6.788;2023-12-14T06:31:12;22.70;62.20
909;DHT22;441;51.192;6.788;2023-12-14T06:33:39;22.70;62.20
909;DHT22;441;51.192;6.788;2023-12-14T06:36:08;22.70;61.30
909;DHT22;441;51.192;6.788;2023-12-14T06:38:36;22.70;60.40
909;DHT22;441;51.192;6.788;2023-12-14T06:41:05;22.70;59.80
909;DHT22;441;51.192;6.788;2023-12-14T06:43:32;22.70;59.50
909;DHT22;441;51.192;6.788;2023-12-14T06:45:59;22.70;59.10
909;DHT22;441;51.192;6.788;2023-12-14T06:48:26;22.70;58.80
909;DHT22;441;51.192;6.788;2023-12-14T06:50:53;22.70;58.60
909;DHT22;441;51.192;6.788;2023-12-14T06:53:20;22.80;58.50
909;DHT22;441;51.192;6.788;2023-12-14T06:55:47;22.80;58.20
909;DHT22;441;51.192;6.788;2023-12-14T06:58:15;22.80;58.00
909;DHT22;441;51.192;6.788;2023-12-14T07:00:42;22.80;57.90
909;DHT22;441;51.192;6.788;2023-12-14T07:03:09;22.80;57.60
909;DHT22;441;51.192;6.788;2023-12-14T07:05:36;22.80;57.50
909;DHT22;441;51.192;6.788;2023-12-14T07:08:03;22.80;57.30
909;DHT22;441;51.192;6.788;2023-12-14T07:10:30;22.80;57.20
909;DHT22;441;51.192;6.788;2023-12-14T07:12:57;22.80;57.00
909;DHT22;441;51.192;6.788;2023-12-14T07:15:26;22.80;56.90
909;DHT22;441;51.192;6.788;2023-12-14T07:17:53;22.80;56.80
909;DHT22;441;51.192;6.788;2023-12-14T07:20:20;22.80;56.70
909;DHT22;441;51.192;6.788;2023-12-14T07:22:47;22.80;56.60
909;DHT22;441;51.192;6.788;2023-12-14T07:25:14;22.80;56.40
909;DHT22;441;51.192;6.788;2023-12-14T07:27:41;22.90;56.50
909;DHT22;441;51.192;6.788;2023-12-14T07:30:09;22.90;56.40
909;DHT22;441;51.192;6.788;2023-12-14T07:32:37;22.90;56.30
909;DHT22;441;51.192;6.788;2023-12-14T07:35:05;22.90;56.20
909;DHT22;441;51.192;6.788;2023-12-14T07:37:32;22.90;56.10
909;DHT22;441;51.192;6.788;2023-12-14T07:39:59;22.90;56.10
909;DHT22;441;51.192;6.788;2023-12-14T07:42:26;22.90;55.90
909;DHT22;441;51.192;6.788;2023-12-14T07:44:53;22.90;55.90
909;DHT22;441;51.192;6.788;2023-12-14T07:47:20;22.90;55.70
909;DHT22;441;51.192;6.788;2023-12-14T07:49:48;22.90;55.60
909;DHT22;441;51.192;6.788;2023-12-14T07:52:15;22.90;55.50
909;DHT22;441;51.192;6.788;2023-12-14T07:54:42;22.90;55.50
909;DHT22;441;51.192;6.788;2023-12-14T07:57:09;22.90;55.30
909;DHT22;441;51.192;6.788;2023-12-14T07:59:36;22.90;55.30
909;DHT22;441;51.192;6.788;2023-12-14T08:02:03;22.90;55.10
909;DHT22;441;51.192;6.788;2023-12-14T08:04:30;22.90;55.00
909;DHT22;441;51.192;6.788;2023-12-14T08:06:59;22.90;55.00
909;DHT22;441;51.192;6.788;2023-12-14T08:09:26;22.90;54.90
909;DHT22;441;51.192;6.788;2023-12-14T08:11:53;22.90;54.90
909;DHT22;441;51.192;6.788;2023-12-14T08:14:20;22.90;54.80
909;DHT22;441;51.192;6.788;2023-12-14T08:16:47;22.90;54.80
909;DHT22;441;51.192;6.788;2023-12-14T08:19:14;22.90;54.70
909;DHT22;441;51.192;6.788;2023-12-14T08:21:41;22.90;54.70
909;DHT22;441;51.192;6.788;2023-12-14T08:24:09;22.90;54.70
909;DHT22;441;51.192;6.788;2023-12-14T08:26:36;22.90;54.60
909;DHT22;441;51.192;6.788;2023-12-14T08:29:03;22.90;54.60
909;DHT22;441;51.192;6.788;2023-12-14T08:31:30;22.90;54.60
909;DHT22;441;51.192;6.788;2023-12-14T08:33:57;22.90;54.50
909;DHT22;441;51.192;6.788;2023-12-14T08:36:24;22.90;54.50
909;DHT22;441;51.192;6.788;2023-12-14T08:38:51;23.00;54.50
909;DHT22;441;51.192;6.788;2023-12-14T08:41:19;23.00;54.40
909;DHT22;441;51.192;6.788;2023-12-14T08:43:46;23.00;54.40
909;DHT22;441;51.192;6.788;2023-12-14T08:46:13;23.00;54.30
909;DHT22;441;51.192;6.788;2023-12-14T08:48:40;22.90;54.20
909;DHT22;441;51.192;6.788;2023-12-14T08:51:07;22.90;54.10
909;DHT22;441;51.192;6.788;2023-12-14T08:53:34;23.00;54.10
909;DHT22;441;51.192;6.788;2023-12-14T08:56:01;22.90;54.00
909;DHT22;441;51.192;6.788;2023-12-14T08:58:30;23.00;54.00
909;DHT22;441;51.192;6.788;2023-12-14T09:00:57;22.90;53.90
909;DHT22;441;51.192;6.788;2023-12-14T09:03:23;22.90;53.80
909;DHT22;441;51.192;6.788;2023-12-14T09:05:51;22.90;53.80
909;DHT22;441;51.192;6.788;2023-12-14T09:08:18;22.90;53.80
909;DHT22;441;51.192;6.788;2023-12-14T09:10:45;22.90;53.70
909;DHT22;441;51.192;6.788;2023-12-14T09:13:12;22.90;53.70
909;DHT22;441;51.192;6.788;2023-12-14T09:15:40;22.90;53.70
909;DHT22;441;51.192;6.788;2023-12-14T09:18:07;22.90;53.70
909;DHT22;441;51.192;6.788;2023-12-14T09:20:34;23.00;53.70
909;DHT22;441;51.192;6.788;2023-12-14T09:23:03;23.00;53.70
909;DHT22;441;51.192;6.788;2023-12-14T09:25:29;23.00;53.70
909;DHT22;441;51.192;6.788;2023-12-14T09:27:58;23.00;53.70
909;DHT22;441;51.192;6.788;2023-12-14T09:30:25;23.00;53.70
909;DHT22;441;51.192;6.788;2023-12-14T09:32:53;23.00;53.70
909;DHT22;441;51.192;6.788;2023-12-14T09:35:20;23.00;53.70
909;DHT22;441;51.192;6.788;2023-12-14T09:37:47;23.00;53.60
909;DHT22;441;51.192;6.788;2023-12-14T09:40:14;23.00;53.50
909;DHT22;441;51.192;6.788;2023-12-14T09:42:42;23.00;53.50
909;DHT22;441;51.192;6.788;2023-12-14T09:45:09;23.00;53.40
909;DHT22;441;51.192;6.788;2023-12-14T09:47:37;23.00;53.40
909;DHT22;441;51.192;6.788;2023-12-14T09:50:07;23.00;53.40
909;DHT22;441;51.192;6.788;2023-12-14T09:52:34;23.00;53.40
909;DHT22;441;51.192;6.788;2023-12-14T09:55:01;23.00;53.30
909;DHT22;441;51.192;6.788;2023-12-14T09:57:29;23.00;53.30
909;DHT22;441;51.192;6.788;2023-12-14T09:59:56;23.00;53.20
909;DHT22;441;51.192;6.788;2023-12-14T10:02:25;23.00;53.20
909;DHT22;441;51.192;6.788;2023-12-14T10:04:51;23.00;53.20
909;DHT22;441;51.192;6.788;2023-12-14T10:07:21;23.00;53.10
909;DHT22;441;51.192;6.788;2023-12-14T10:09:48;23.00;53.10
909;DHT22;441;51.192;6.788;2023-12-14T10:12:16;23.00;53.10
909;DHT22;441;51.192;6.788;2023-12-14T10:14:43;23.00;53.10
909;DHT22;441;51.192;6.788;2023-12-14T10:17:18;23.00;53.10
909;DHT22;441;51.192;6.788;2023-12-14T10:19:46;23.00;53.00
909;DHT22;441;51.192;6.788;2023-12-14T10:22:14;23.00;53.00
909;DHT22;441;51.192;6.788;2023-12-14T10:24:44;23.00;53.00
909;DHT22;441;51.192;6.788;2023-12-14T10:27:11;23.00;53.00
909;DHT22;441;51.192;6.788;2023-12-14T10:29:38;23.00;53.00
909;DHT22;441;51.192;6.788;2023-12-14T10:32:07;23.00;53.00
909;DHT22;441;51.192;6.788;2023-12-14T10:34:36;23.00;53.00
909;DHT22;441;51.192;6.788;2023-12-14T10:37:05;23.00;53.00
909;DHT22;441;51.192;6.788;2023-12-14T10:39:33;23.00;52.90
909;DHT22;441;51.192;6.788;2023-12-14T10:42:02;23.00;53.40
909;DHT22;441;51.192;6.788;2023-12-14T10:44:30;23.00;52.80
909;DHT22;441;51.192;6.788;2023-12-14T10:47:00;23.00;52.80
909;DHT22;441;51.192;6.788;2023-12-14T10:49:27;23.00;52.80
909;DHT22;441;51.192;6.788;2023-12-14T10:51:57;23.00;52.70
909;DHT22;441;51.192;6.788;2023-12-14T10:54:25;23.00;52.70
909;DHT22;441;51.192;6.788;2023-12-14T10:56:54;23.00;52.70
909;DHT22;441;51.192;6.788;2023-12-14T10:59:24;23.00;52.60
909;DHT22;441;51.192;6.788;2023-12-14T11:01:51;23.00;53.10
909;DHT22;441;51.192;6.788;2023-12-14T11:04:21;23.00;52.50
909;DHT22;441;51.192;6.788;2023-12-14T11:06:48;23.00;52.50
909;DHT22;441;51.192;6.788;2023-12-14T11:09:17;23.00;52.50
909;DHT22;441;51.192;6.788;2023-12-14T11:11:54;23.00;52.50
909;DHT22;441;51.192;6.788;2023-12-14T11:14:25;23.00;52.50
909;DHT22;441;51.192;6.788;2023-12-14T11:16:55;23.00;52.50
909;DHT22;441;51.192;6.788;2023-12-14T11:19:29;23.00;52.50
909;DHT22;441;51.192;6.788;2023-12-14T11:22:09;23.00;52.50
909;DHT22;441;51.192;6.788;2023-12-14T11:24:41;23.00;52.50
909;DHT22;441;51.192;6.788;2023-12-14T11:27:09;23.00;52.50
909;DHT22;441;51.192;6.788;2023-12-14T11:29:37;23.00;52.50
909;DHT22;441;51.192;6.788;2023-12-14T11:32:07;23.00;52.50
909;DHT22;441;51.192;6.788;2023-12-14T11:34:34;23.00;52.40
909;DHT22;441;51.192;6.788;2023-12-14T11:37:01;23.00;52.40
909;DHT22;441;51.192;6.788;2023-12-14T11:39:30;23.00;52.30
909;DHT22;441;51.192;6.788;2023-12-14T11:42:01;23.00;52.30
909;DHT22;441;51.192;6.788;2023-12-14T11:44:28;23.00;52.20
909;DHT22;441;51.192;6.788;2023-12-14T11:46:57;23.00;52.20
909;DHT22;441;51.192;6.788;2023-12-14T11:49:25;23.00;52.20
909;DHT22;441;51.192;6.788;2023-12-14T11:51:52;23.00;52.20
909;DHT22;441;51.192;6.788;2023-12-14T11:54:21;23.00;52.20
909;DHT22;441;51.192;6.788;2023-12-14T11:56:48;23.00;52.10
909;DHT22;441;51.192;6.788;2023-12-14T11:59:15;23.00;52.10
909;DHT22;441;51.192;6.788;2023-12-14T12:01:54;23.00;52.10
909;DHT22;441;51.192;6.788;2023-12-14T12:04:23;23.00;52.00
909;DHT22;441;51.192;6.788;2023-12-14T12:06:50;23.00;52.00
909;DHT22;441;51.192;6.788;2023-12-14T12:09:37;23.00;52.00
909;DHT22;441;51.192;6.788;2023-12-14T12:12:08;23.00;52.00
909;DHT22;441;51.192;6.788;2023-12-14T12:14:36;23.00;52.00
909;DHT22;441;51.192;6.788;2023-12-14T12:17:04;23.00;52.00
909;DHT22;441;51.192;6.788;2023-12-14T12:19:33;23.00;52.00
909;DHT22;441;51.192;6.788;2023-12-14T12:22:00;23.00;51.90
909;DHT22;441;51.192;6.788;2023-12-14T12:24:27;23.00;51.90
909;DHT22;441;51.192;6.788;2023-12-14T12:26:54;23.00;51.90
909;DHT22;441;51.192;6.788;2023-12-14T12:29:21;23.00;51.90
909;DHT22;441;51.192;6.788;2023-12-14T12:31:48;23.00;51.90
909;DHT22;441;51.192;6.788;2023-12-14T12:34:15;23.00;51.90
909;DHT22;441;51.192;6.788;2023-12-14T12:36:44;23.00;51.90
909;DHT22;441;51.192;6.788;2023-12-14T12:39:10;23.00;51.90
909;DHT22;441;51.192;6.788;2023-12-14T12:41:37;23.00;51.90
909;DHT22;441;51.192;6.788;2023-12-14T12:44:05;23.00;51.80
909;DHT22;441;51.192;6.788;2023-12-14T12:46:33;23.00;51.80
909;DHT22;441;51.192;6.788;2023-12-14T12:49:01;23.00;51.80
909;DHT22;441;51.192;6.788;2023-12-14T12:51:28;23.00;51.70
909;DHT22;441;51.192;6.788;2023-12-14T12:53:57;23.00;52.20
909;DHT22;441;51.192;6.788;2023-12-14T12:56:25;23.00;51.70
909;DHT22;441;51.192;6.788;2023-12-14T12:58:52;23.00;51.60
909;DHT22;441;51.192;6.788;2023-12-14T13:01:20;23.00;51.60
909;DHT22;441;51.192;6.788;2023-12-14T13:03:52;23.00;51.60
909;DHT22;441;51.192;6.788;2023-12-14T13:06:20;23.00;51.60
909;DHT22;441;51.192;6.788;2023-12-14T13:08:47;23.00;51.60
909;DHT22;441;51.192;6.788;2023-12-14T13:11:15;23.00;51.60
909;DHT22;441;51.192;6.788;2023-12-14T13:13:42;23.00;51.60
909;DHT22;441;51.192;6.788;2023-12-14T13:16:09;23.00;51.60
909;DHT22;441;51.192;6.788;2023-12-14T13:18:36;23.00;51.50
909;DHT22;441;51.192;6.788;2023-12-14T13:21:04;23.00;51.60
909;DHT22;441;51.192;6.788;2023-12-14T13:23:31;23.00;51.60
909;DHT22;441;51.192;6.788;2023-12-14T13:25:58;23.00;51.60
909;DHT22;441;51.192;6.788;2023-12-14T13:28:27;23.00;51.60
909;DHT22;441;51.192;6.788;2023-12-14T13:30:53;23.00;51.60
909;DHT22;441;51.192;6.788;2023-12-14T13:33:20;23.00;51.60
909;DHT22;441;51.192;6.788;2023-12-14T13:35:47;23.00;51.60
909;DHT22;441;51.192;6.788;2023-12-14T13:38:14;23.00;51.60
909;DHT22;441;51.192;6.788;2023-12-14T13:40:42;23.10;52.10
909;DHT22;441;51.192;6.788;2023-12-14T13:43:09;23.00;52.30
909;DHT22;441;51.192;6.788;2023-12-14T13:45:38;23.10;52.70
909;DHT22;441;51.192;6.788;2023-12-14T13:48:07;23.10;52.70
909;DHT22;441;51.192;6.788;2023-12-14T13:50:34;23.10;52.90
909;DHT22;441;51.192;6.788;2023-12-14T13:53:01;23.10;52.90
909;DHT22;441;51.192;6.788;2023-12-14T13:55:28;23.20;53.00
909;DHT22;441;51.192;6.788;2023-12-14T13:57:55;23.20;53.10
909;DHT22;441;51.192;6.788;2023-12-14T14:00:23;23.20;53.10
909;DHT22;441;51.192;6.788;2023-12-14T14:02:52;23.20;53.30
909;DHT22;441;51.192;6.788;2023-12-14T14:05:19;23.30;53.30
909;DHT22;441;51.192;6.788;2023-12-14T14:07:46;23.30;53.30
909;DHT22;441;51.192;6.788;2023-12-14T14:10:14;23.30;53.20
909;DHT22;441;51.192;6.788;2023-12-14T14:12:40;23.30;53.20
909;DHT22;441;51.192;6.788;2023-12-14T14:15:08;23.30;53.10
909;DHT22;441;51.192;6.788;2023-12-14T14:17:35;23.30;52.80
909;DHT22;441;51.192;6.788;2023-12-14T14:20:06;23.30;53.00
909;DHT22;441;51.192;6.788;2023-12-14T14:22:34;23.30;53.10
909;DHT22;441;51.192;6.788;2023-12-14T14:25:01;23.30;52.90
909;DHT22;441;51.192;6.788;2023-12-14T14:27:28;23.30;53.10
909;DHT22;441;51.192;6.788;2023-12-14T14:29:55;23.30;53.00
909;DHT22;441;51.192;6.788;2023-12-14T14:32:22;23.30;52.90
909;DHT22;441;51.192;6.788;2023-12-14T14:34:50;23.30;52.90
909;DHT22;441;51.192;6.788;2023-12-14T14:37:20;23.30;53.50
909;DHT22;441;51.192;6.788;2023-12-14T14:39:48;23.30;53.10
909;DHT22;441;51.192;6.788;2023-12-14T14:42:15;23.30;52.90
909;DHT22;441;51.192;6.788;2023-12-14T14:44:42;23.30;52.80
909;DHT22;441;51.192;6.788;2023-12-14T14:47:08;23.40;52.80
909;DHT22;441;51.192;6.788;2023-12-14T14:49:35;23.40;53.10
909;DHT22;441;51.192;6.788;2023-12-14T14:52:02;23.40;52.90
909;DHT22;441;51.192;6.788;2023-12-14T14:54:31;23.40;52.60
909;DHT22;441;51.192;6.788;2023-12-14T15:00:23;23.40;52.60
909;DHT22;441;51.192;6.788;2023-12-14T15:02:51;23.50;52.80
909;DHT22;441;51.192;6.788;2023-12-14T15:05:18;23.40;52.80
909;DHT22;441;51.192;6.788;2023-12-14T15:07:45;23.40;52.40
909;DHT22;441;51.192;6.788;2023-12-14T15:10:13;23.40;51.60
909;DHT22;441;51.192;6.788;2023-12-14T15:12:40;23.40;53.20
909;DHT22;441;51.192;6.788;2023-12-14T15:15:08;23.50;54.90
909;DHT22;441;51.192;6.788;2023-12-14T15:17:35;23.50;56.70
909;DHT22;441;51.192;6.788;2023-12-14T15:20:06;23.50;56.20
909;DHT22;441;51.192;6.788;2023-12-14T15:22:37;23.50;56.40
909;DHT22;441;51.192;6.788;2023-12-14T15:25:05;23.50;56.40
909;DHT22;441;51.192;6.788;2023-12-14T15:27:57;23.50;56.40
909;DHT22;441;51.192;6.788;2023-12-14T15:30:27;23.40;56.20
909;DHT22;441;51.192;6.788;2023-12-14T15:32:57;23.40;56.50
909;DHT22;441;51.192;6.788;2023-12-14T15:35:26;23.50;56.40
909;DHT22;441;51.192;6.788;2023-12-14T15:37:54;23.50;56.40
909;DHT22;441;51.192;6.788;2023-12-14T15:40:21;23.50;56.40
909;DHT22;441;51.192;6.788;2023-12-14T15:42:48;23.50;56.50
909;DHT22;441;51.192;6.788;2023-12-14T15:45:18;23.50;56.60
909;DHT22;441;51.192;6.788;2023-12-14T15:47:47;23.50;56.70
909;DHT22;441;51.192;6.788;2023-12-14T15:50:16;23.60;56.60
909;DHT22;441;51.192;6.788;2023-12-14T15:52:46;23.50;56.60
909;DHT22;441;51.192;6.788;2023-12-14T15:55:13;23.60;56.80
909;DHT22;441;51.192;6.788;2023-12-14T15:57:41;23.60;56.80
909;DHT22;441;51.192;6.788;2023-12-14T16:00:10;23.60;56.80
909;DHT22;441;51.192;6.788;2023-12-14T16:02:39;23.60;56.60
909;DHT22;441;51.192;6.788;2023-12-14T16:05:06;23.70;57.00
909;DHT22;441;51.192;6.788;2023-12-14T16:07:34;23.70;57.80
909;DHT22;441;51.192;6.788;2023-12-14T16:10:01;23.70;57.50
909;DHT22;441;51.192;6.788;2023-12-14T16:12:29;23.80;57.90
909;DHT22;441;51.192;6.788;2023-12-14T16:14:55;23.70;58.00
909;DHT22;441;51.192;6.788;2023-12-14T16:17:23;23.70;58.10
909;DHT22;441;51.192;6.788;2023-12-14T16:19:51;23.70;57.70
909;DHT22;441;51.192;6.788;2023-12-14T16:22:18;23.80;57.50
909;DHT22;441;51.192;6.788;2023-12-14T16:24:45;23.70;57.10
909;DHT22;441;51.192;6.788;2023-12-14T16:27:12;23.70;56.90
909;DHT22;441;51.192;6.788;2023-12-14T16:29:39;23.70;57.00
909;DHT22;441;51.192;6.788;2023-12-14T16:32:06;23.70;56.80
909;DHT22;441;51.192;6.788;2023-12-14T16:34:33;23.70;56.80
909;DHT22;441;51.192;6.788;2023-12-14T16:37:03;23.70;56.70
909;DHT22;441;51.192;6.788;2023-12-14T16:39:30;23.70;56.50